createdAt,value
2022-11-24T00:00:08.547Z,6.17
2022-11-24T00:01:19.680Z,6.50
2022-11-24T00:02:21.829Z,7.97
2022-11-24T00:03:23.786Z,6.93
2022-11-24T00:04:25.879Z,6.73
2022-11-24T00:05:27.692Z,7.23
2022-11-24T00:06:32.092Z,6.40
2022-11-24T00:07:33.950Z,7.60
2022-11-24T00:08:37.053Z,4.90
2022-11-24T00:09:38.917Z,9.87
2022-11-24T00:10:40.702Z,7.37
2022-11-24T00:11:42.500Z,6.77
2022-11-24T00:12:44.259Z,5.87
2022-11-24T00:13:46.928Z,8.03
2022-11-24T00:14:48.707Z,7.27
2022-11-24T00:15:50.536Z,8.40
2022-11-24T00:16:52.424Z,10.13
2022-11-24T00:17:54.806Z,9.90
2022-11-24T00:18:58.459Z,7.97
2022-11-24T00:20:00.333Z,7.30
2022-11-24T00:21:02.487Z,5.87
2022-11-24T00:22:04.281Z,9.17
2022-11-24T00:23:06.862Z,6.50
2022-11-24T00:24:09.615Z,7.83
2022-11-24T00:25:11.466Z,4.63
2022-11-24T00:26:19.366Z,10.80
2022-11-24T00:27:21.148Z,6.63
2022-11-24T00:28:23.732Z,9.23
2022-11-24T00:29:25.543Z,7.67
2022-11-24T00:30:27.412Z,7.90
2022-11-24T00:31:30.465Z,11.80
2022-11-24T00:32:32.265Z,6.93
2022-11-24T00:33:34.019Z,8.90
2022-11-24T00:34:36.065Z,6.53
2022-11-24T00:35:37.972Z,6.93
2022-11-24T00:36:40.456Z,7.33
2022-11-24T00:37:42.237Z,6.70
2022-11-24T00:38:45.300Z,8.83
2022-11-24T00:39:47.109Z,8.00
2022-11-24T00:40:48.949Z,7.87
2022-11-24T00:41:50.775Z,11.13
2022-11-24T00:42:52.555Z,9.37
2022-11-24T00:43:55.097Z,8.03
2022-11-24T00:44:56.874Z,9.93
2022-11-24T00:45:58.767Z,12.33
2022-11-24T00:47:00.946Z,11.47
2022-11-24T00:48:02.797Z,8.70
2022-11-24T00:49:04.910Z,14.53
2022-11-24T00:50:07.339Z,13.40
2022-11-24T00:51:11.614Z,8.90
2022-11-24T00:52:13.415Z,11.00
2022-11-24T00:53:15.385Z,8.33
2022-11-24T00:54:17.341Z,6.97
2022-11-24T00:55:19.067Z,7.53
2022-11-24T00:56:20.890Z,10.50
2022-11-24T00:57:22.693Z,6.93
2022-11-24T00:58:25.463Z,10.77
2022-11-24T00:59:27.228Z,9.80
2022-11-24T01:00:29.483Z,14.07
2022-11-24T01:01:31.597Z,10.37
2022-11-24T01:02:33.468Z,10.17
2022-11-24T01:03:35.450Z,6.33
2022-11-24T01:04:37.217Z,6.30
2022-11-24T01:05:39.909Z,10.33
2022-11-24T01:06:41.777Z,8.40
2022-11-24T01:07:43.598Z,12.27
2022-11-24T01:08:46.688Z,7.90
2022-11-24T01:09:48.466Z,6.87
2022-11-24T01:10:50.229Z,6.97
2022-11-24T01:12:04.386Z,6.80
2022-11-24T01:13:07.318Z,5.53
2022-11-24T01:14:09.169Z,7.97
2022-11-24T01:15:11.152Z,5.43
2022-11-24T01:16:18.554Z,6.70
2022-11-24T01:17:20.477Z,4.60
2022-11-24T01:18:22.235Z,12.63
2022-11-24T01:19:24.278Z,7.67
2022-11-24T01:20:26.119Z,10.87
2022-11-24T01:21:27.883Z,9.17
2022-11-24T01:22:29.722Z,10.37
2022-11-24T01:23:32.052Z,6.50
2022-11-24T01:24:34.055Z,6.20
2022-11-24T01:25:39.791Z,9.07
2022-11-24T01:26:41.948Z,6.43
2022-11-24T01:27:43.819Z,6.97
2022-11-24T01:28:47.546Z,11.30
2022-11-24T01:29:49.589Z,7.30
2022-11-24T01:30:58.602Z,10.40
2022-11-24T01:32:00.429Z,6.33
2022-11-24T01:33:02.200Z,7.90
2022-11-24T01:34:04.136Z,5.83
2022-11-24T01:35:06.734Z,7.50
2022-11-24T01:36:08.575Z,9.50
2022-11-24T01:37:10.548Z,6.77
2022-11-24T01:38:12.312Z,6.73
2022-11-24T01:39:14.271Z,5.10
2022-11-24T01:40:16.306Z,5.60
2022-11-24T01:41:23.712Z,7.23
2022-11-24T01:42:25.662Z,6.23
2022-11-24T01:43:27.448Z,7.00
2022-11-24T01:44:31.186Z,4.47
2022-11-24T01:45:40.606Z,3.73
2022-11-24T01:46:46.547Z,5.73
2022-11-24T01:47:48.416Z,4.63
2022-11-24T01:48:58.349Z,7.13
2022-11-24T01:50:02.912Z,6.40
2022-11-24T01:51:13.493Z,4.67
2022-11-24T01:52:22.020Z,9.30
2022-11-24T01:53:25.268Z,8.33
2022-11-24T01:54:33.779Z,8.60
2022-11-24T01:55:38.858Z,6.87
2022-11-24T01:56:43.699Z,4.83
2022-11-24T01:57:55.262Z,8.90
2022-11-24T01:59:00.903Z,7.07
2022-11-24T02:00:07.607Z,8.90
2022-11-24T02:01:10.640Z,9.57
2022-11-24T02:02:13.276Z,8.47
2022-11-24T02:03:20.230Z,6.90
2022-11-24T02:04:27.035Z,8.27
2022-11-24T02:05:36.280Z,11.20
2022-11-24T02:06:41.699Z,8.93
2022-11-24T02:07:43.695Z,5.80
2022-11-24T02:09:07.945Z,8.80
2022-11-24T02:10:13.694Z,8.53
2022-11-24T02:11:15.589Z,6.90
2022-11-24T02:12:17.629Z,9.00
2022-11-24T02:13:19.978Z,8.73
2022-11-24T02:14:24.812Z,11.43
2022-11-24T02:15:27.463Z,8.13
2022-11-24T02:16:30.016Z,6.03
2022-11-24T02:17:31.793Z,9.90
2022-11-24T02:18:33.926Z,6.07
2022-11-24T02:19:41.782Z,9.50
2022-11-24T02:20:43.613Z,7.97
2022-11-24T02:21:45.719Z,11.57
2022-11-24T02:23:05.600Z,7.73
2022-11-24T02:24:25.370Z,4.93
2022-11-24T02:25:42.811Z,7.57
2022-11-24T02:26:47.356Z,6.17
2022-11-24T02:27:53.680Z,4.83
2022-11-24T02:28:56.518Z,6.83
2022-11-24T02:29:59.029Z,11.83
2022-11-24T02:31:01.800Z,7.20
2022-11-24T02:32:06.186Z,9.97
2022-11-24T02:33:08.207Z,5.73
2022-11-24T02:34:09.992Z,10.17
2022-11-24T02:35:12.589Z,8.83
2022-11-24T02:36:14.479Z,9.60
2022-11-24T02:37:16.319Z,10.37
2022-11-24T02:38:18.392Z,6.87
2022-11-24T02:39:21.030Z,6.27
2022-11-24T02:40:26.608Z,7.90
2022-11-24T02:41:29.143Z,6.97
2022-11-24T02:42:37.505Z,7.67
2022-11-24T02:43:44.998Z,7.57
2022-11-24T02:44:52.304Z,6.90
2022-11-24T02:45:54.152Z,7.80
2022-11-24T02:47:07.182Z,5.10
2022-11-24T02:48:09.025Z,9.70
2022-11-24T02:49:10.973Z,5.87
2022-11-24T02:50:13.186Z,8.37
2022-11-24T02:51:15.102Z,9.47
2022-11-24T02:52:16.981Z,7.63
2022-11-24T02:53:18.857Z,3.30
2022-11-24T02:54:20.637Z,9.47
2022-11-24T02:55:23.518Z,8.27
2022-11-24T02:56:26.471Z,8.50
2022-11-24T02:57:28.332Z,9.00
2022-11-24T02:58:30.152Z,8.67
2022-11-24T02:59:31.912Z,8.90
2022-11-24T03:00:33.695Z,11.00
2022-11-24T03:01:35.526Z,7.60
2022-11-24T03:02:37.501Z,8.03
2022-11-24T03:03:39.560Z,11.10
2022-11-24T03:04:41.408Z,9.47
2022-11-24T03:05:43.168Z,7.70
2022-11-24T03:06:44.996Z,5.03
2022-11-24T03:07:46.882Z,6.93
2022-11-24T03:08:48.834Z,4.27
2022-11-24T03:09:50.570Z,4.80
2022-11-24T03:10:52.393Z,8.90
2022-11-24T03:11:54.209Z,6.23
2022-11-24T03:12:56.280Z,6.33
2022-11-24T03:13:58.105Z,15.10
2022-11-24T03:14:59.975Z,7.60
2022-11-24T03:16:01.838Z,10.23
2022-11-24T03:17:04.166Z,5.07
2022-11-24T03:18:06.250Z,7.07
2022-11-24T03:19:08.044Z,5.47
2022-11-24T03:20:10.558Z,4.60
2022-11-24T03:21:12.334Z,6.87
2022-11-24T03:22:14.778Z,5.93
2022-11-24T03:23:16.718Z,6.33
2022-11-24T03:24:18.497Z,5.03
2022-11-24T03:25:20.283Z,11.07
2022-11-24T03:26:23.267Z,6.20
2022-11-24T03:27:25.133Z,8.83
2022-11-24T03:28:26.994Z,5.83
2022-11-24T03:29:28.792Z,5.77
2022-11-24T03:30:31.147Z,3.93
2022-11-24T03:31:33.046Z,4.03
2022-11-24T03:32:34.971Z,3.40
2022-11-24T03:33:37.291Z,8.07
2022-11-24T03:34:39.133Z,5.87
2022-11-24T03:35:40.901Z,5.77
2022-11-24T03:36:42.670Z,9.40
2022-11-24T03:37:44.497Z,6.97
2022-11-24T03:38:46.410Z,4.43
2022-11-24T03:39:48.478Z,6.00
2022-11-24T03:40:50.249Z,4.47
2022-11-24T03:41:51.999Z,4.90
2022-11-24T03:42:53.847Z,9.37
2022-11-24T03:43:55.630Z,5.13
2022-11-24T03:44:57.481Z,5.83
2022-11-24T03:45:59.287Z,5.80
2022-11-24T03:47:01.121Z,7.50
2022-11-24T03:48:02.943Z,5.97
2022-11-24T03:49:04.748Z,3.13
2022-11-24T03:50:06.878Z,4.17
2022-11-24T03:51:09.680Z,7.57
2022-11-24T03:52:11.612Z,6.70
2022-11-24T03:53:13.409Z,5.57
2022-11-24T03:54:15.454Z,10.07
2022-11-24T03:55:17.316Z,7.23
2022-11-24T03:56:19.378Z,7.33
2022-11-24T03:57:22.562Z,4.97
2022-11-24T03:58:25.480Z,3.63
2022-11-24T03:59:27.316Z,3.77
2022-11-24T04:00:29.565Z,4.80
2022-11-24T04:01:31.490Z,5.70
2022-11-24T04:02:33.639Z,5.70
2022-11-24T04:03:35.455Z,4.53
2022-11-24T04:04:37.331Z,4.87
2022-11-24T04:05:39.186Z,4.33
2022-11-24T04:06:41.085Z,8.03
2022-11-24T04:07:42.999Z,7.33
2022-11-24T04:08:44.876Z,9.87
2022-11-24T04:09:46.784Z,9.37
2022-11-24T04:10:53.139Z,4.07
2022-11-24T04:12:13.591Z,6.67
2022-11-24T04:13:17.066Z,5.87
2022-11-24T04:14:19.491Z,6.90
2022-11-24T04:15:21.840Z,5.67
2022-11-24T04:16:23.975Z,5.17
2022-11-24T04:17:25.822Z,4.13
2022-11-24T04:18:27.579Z,8.80
2022-11-24T04:19:29.472Z,4.13
2022-11-24T04:20:31.227Z,9.20
2022-11-24T04:21:32.996Z,6.13
2022-11-24T04:22:35.720Z,6.27
2022-11-24T04:23:37.524Z,6.43
2022-11-24T04:24:39.213Z,6.13
2022-11-24T04:25:42.724Z,3.97
2022-11-24T04:26:44.598Z,6.93
2022-11-24T04:27:51.940Z,7.00
2022-11-24T04:28:53.785Z,4.20
2022-11-24T04:29:55.594Z,6.20
2022-11-24T04:31:05.695Z,5.43
2022-11-24T04:32:08.918Z,4.03
2022-11-24T04:33:11.022Z,9.03
2022-11-24T04:34:12.842Z,6.60
2022-11-24T04:35:14.845Z,5.73
2022-11-24T04:36:16.623Z,4.27
2022-11-24T04:37:18.436Z,6.00
2022-11-24T04:39:24.932Z,5.00
2022-11-24T04:39:42.063Z,4.67
2022-11-24T04:40:43.804Z,9.70
2022-11-24T04:41:47.789Z,4.53
2022-11-24T04:42:54.366Z,2.40
2022-11-24T04:43:56.182Z,5.03
2022-11-24T04:44:57.991Z,5.70
2022-11-24T04:46:01.395Z,2.17
2022-11-24T04:47:03.316Z,4.70
2022-11-24T04:48:05.719Z,5.00
2022-11-24T04:49:11.534Z,4.37
2022-11-24T04:50:13.383Z,8.17
2022-11-24T04:51:15.877Z,4.03
2022-11-24T04:52:19.585Z,6.83
2022-11-24T04:53:21.903Z,6.40
2022-11-24T04:54:23.857Z,4.13
2022-11-24T04:55:25.622Z,6.70
2022-11-24T04:56:27.486Z,3.77
2022-11-24T04:57:29.274Z,4.93
2022-11-24T04:58:31.175Z,5.97
2022-11-24T04:59:32.937Z,3.50
2022-11-24T05:00:34.663Z,4.17
2022-11-24T05:01:36.457Z,4.07
2022-11-24T05:02:38.375Z,6.57
2022-11-24T05:03:40.358Z,5.43
2022-11-24T05:04:42.166Z,3.07
2022-11-24T05:05:43.898Z,3.20
2022-11-24T05:06:45.644Z,3.07
2022-11-24T05:07:47.443Z,5.43
2022-11-24T05:08:50.581Z,6.87
2022-11-24T05:10:10.696Z,6.57
2022-11-24T05:11:12.403Z,7.57
2022-11-24T05:12:14.077Z,9.07
2022-11-24T05:13:16.050Z,6.37
2022-11-24T05:14:17.810Z,5.80
2022-11-24T05:15:19.646Z,6.10
2022-11-24T05:16:21.627Z,5.13
2022-11-24T05:17:23.428Z,5.23
2022-11-24T05:18:25.341Z,11.47
2022-11-24T05:19:31.220Z,5.80
2022-11-24T05:20:35.237Z,7.60
2022-11-24T05:21:37.071Z,12.00
2022-11-24T05:22:38.812Z,5.27
2022-11-24T05:23:40.625Z,4.30
2022-11-24T05:24:42.602Z,5.83
2022-11-24T05:25:47.593Z,6.97
2022-11-24T05:26:50.179Z,5.77
2022-11-24T05:27:52.011Z,4.27
2022-11-24T05:28:54.085Z,7.83
2022-11-24T05:29:56.053Z,5.10
2022-11-24T05:31:02.336Z,6.13
2022-11-24T05:32:04.778Z,9.80
2022-11-24T05:33:08.422Z,5.10
2022-11-24T05:34:10.110Z,10.13
2022-11-24T05:35:11.870Z,6.33
2022-11-24T05:36:33.641Z,6.83
2022-11-24T05:37:35.659Z,3.30
2022-11-24T05:38:37.442Z,5.40
2022-11-24T05:39:39.296Z,6.53
2022-11-24T05:40:41.480Z,8.73
2022-11-24T05:41:43.289Z,6.53
2022-11-24T05:42:48.085Z,5.83
2022-11-24T05:43:50.156Z,7.37
2022-11-24T05:44:52.414Z,5.80
2022-11-24T05:45:54.231Z,4.93
2022-11-24T05:46:56.063Z,4.90
2022-11-24T05:48:05.651Z,6.73
2022-11-24T05:49:07.484Z,6.63
2022-11-24T05:50:11.308Z,7.73
2022-11-24T05:51:13.144Z,10.17
2022-11-24T05:52:15.685Z,7.33
2022-11-24T05:53:17.503Z,8.30
2022-11-24T05:54:19.628Z,8.43
2022-11-24T05:55:21.419Z,10.27
2022-11-24T05:56:23.214Z,9.00
2022-11-24T05:57:25.037Z,8.93
2022-11-24T05:58:26.805Z,15.53
2022-11-24T05:59:28.628Z,10.60
2022-11-24T06:00:32.350Z,8.20
2022-11-24T06:01:34.729Z,11.87
2022-11-24T06:02:36.598Z,8.83
2022-11-24T06:03:38.502Z,12.00
2022-11-24T06:04:40.422Z,9.03
2022-11-24T06:05:47.084Z,10.67
2022-11-24T06:06:49.110Z,12.77
2022-11-24T06:07:51.100Z,9.33
2022-11-24T06:08:52.959Z,10.30
2022-11-24T06:09:54.728Z,9.23
2022-11-24T06:11:17.136Z,9.23
2022-11-24T06:12:20.330Z,12.90
2022-11-24T06:13:22.252Z,6.90
2022-11-24T06:14:24.342Z,8.70
2022-11-24T06:15:26.224Z,9.97
2022-11-24T06:16:28.012Z,26.87
2022-11-24T06:17:29.969Z,10.77
2022-11-24T06:18:31.691Z,53.07
2022-11-24T06:19:35.496Z,142.63
2022-11-24T06:20:40.472Z,27.37
2022-11-24T06:21:42.602Z,20.77
2022-11-24T06:22:44.451Z,11.83
2022-11-24T06:23:49.031Z,14.07
2022-11-24T06:24:51.281Z,22.10
2022-11-24T06:25:53.027Z,27.30
2022-11-24T06:26:54.816Z,18.60
2022-11-24T06:27:56.666Z,11.63
2022-11-24T06:28:58.503Z,14.23
2022-11-24T06:30:00.785Z,15.57
2022-11-24T06:31:03.938Z,8.93
2022-11-24T06:32:06.217Z,10.10
2022-11-24T06:33:07.992Z,11.20
2022-11-24T06:34:11.672Z,11.30
2022-11-24T06:35:13.901Z,8.43
2022-11-24T06:36:15.942Z,8.53
2022-11-24T06:37:18.191Z,13.10
2022-11-24T06:38:24.189Z,8.40
2022-11-24T06:39:26.225Z,8.30
2022-11-24T06:40:28.067Z,12.83
2022-11-24T06:41:30.156Z,9.80
2022-11-24T06:42:31.913Z,12.57
2022-11-24T06:43:34.767Z,10.00
2022-11-24T06:44:36.705Z,12.43
2022-11-24T06:45:38.644Z,13.67
2022-11-24T06:46:40.715Z,10.17
2022-11-24T06:47:42.430Z,10.20
2022-11-24T06:48:44.171Z,9.67
2022-11-24T06:49:45.931Z,9.93
2022-11-24T06:50:47.648Z,8.17
2022-11-24T06:51:49.367Z,8.67
2022-11-24T06:52:51.071Z,8.53
2022-11-24T06:53:53.107Z,9.67
2022-11-24T06:54:54.925Z,8.63
2022-11-24T06:55:59.682Z,5.77
2022-11-24T06:57:01.429Z,7.07
2022-11-24T06:58:03.238Z,9.93
2022-11-24T06:59:05.015Z,8.87
2022-11-24T07:00:08.226Z,11.07
2022-11-24T07:01:14.313Z,10.77
2022-11-24T07:02:16.091Z,12.93
2022-11-24T07:03:19.513Z,10.77
2022-11-24T07:04:21.371Z,15.00
2022-11-24T07:05:23.159Z,14.33
2022-11-24T07:06:26.368Z,8.77
2022-11-24T07:07:28.180Z,7.60
2022-11-24T07:08:29.953Z,10.30
2022-11-24T07:09:31.728Z,8.27
2022-11-24T07:10:34.000Z,6.83
2022-11-24T07:11:36.190Z,8.97
2022-11-24T07:12:38.046Z,9.83
2022-11-24T07:13:39.995Z,7.20
2022-11-24T07:14:41.740Z,9.50
2022-11-24T07:15:43.478Z,13.47
2022-11-24T07:16:45.390Z,11.10
2022-11-24T07:17:47.174Z,14.93
2022-11-24T07:18:51.238Z,13.33
2022-11-24T07:19:53.004Z,16.47
2022-11-24T07:20:54.808Z,22.87
2022-11-24T07:21:57.150Z,22.60
2022-11-24T07:22:59.658Z,26.70
2022-11-24T07:24:02.292Z,19.30
2022-11-24T07:25:07.596Z,21.90
2022-11-24T07:26:11.034Z,24.27
2022-11-24T07:27:13.573Z,19.43
2022-11-24T07:28:16.348Z,20.10
2022-11-24T07:29:18.056Z,19.53
2022-11-24T07:30:19.875Z,17.87
2022-11-24T07:31:25.004Z,18.73
2022-11-24T07:32:27.161Z,16.30
2022-11-24T07:33:28.906Z,16.07
2022-11-24T07:34:30.738Z,15.40
2022-11-24T07:35:32.533Z,17.97
2022-11-24T07:36:34.342Z,13.37
2022-11-24T07:37:36.143Z,14.67
2022-11-24T07:38:37.841Z,14.00
2022-11-24T07:39:39.624Z,20.53
2022-11-24T07:40:41.680Z,13.20
2022-11-24T07:41:43.441Z,18.80
2022-11-24T07:42:45.272Z,13.60
2022-11-24T07:43:47.677Z,14.73
2022-11-24T07:44:49.588Z,17.93
2022-11-24T07:45:54.580Z,13.93
2022-11-24T07:46:56.532Z,19.17
2022-11-24T07:47:58.431Z,19.30
2022-11-24T07:49:00.262Z,13.93
2022-11-24T07:50:02.170Z,18.83
2022-11-24T07:51:05.847Z,17.53
2022-11-24T07:52:08.185Z,14.00
2022-11-24T07:53:09.901Z,13.00
2022-11-24T07:54:12.072Z,16.90
2022-11-24T07:55:14.196Z,18.77
2022-11-24T07:56:15.958Z,17.53
2022-11-24T07:57:17.673Z,18.50
2022-11-24T07:58:19.573Z,14.97
2022-11-24T07:59:21.321Z,12.50
2022-11-24T08:00:23.172Z,20.73
2022-11-24T08:01:25.011Z,17.60
2022-11-24T08:02:27.034Z,16.37
2022-11-24T08:03:28.984Z,14.87
2022-11-24T08:04:31.010Z,17.80
2022-11-24T08:05:32.754Z,14.67
2022-11-24T08:06:39.715Z,16.43
2022-11-24T08:07:45.037Z,26.00
2022-11-24T08:08:47.758Z,17.37
2022-11-24T08:09:50.459Z,21.53
2022-11-24T08:10:52.540Z,21.50
2022-11-24T08:11:54.242Z,20.93
2022-11-24T08:12:59.907Z,19.40
2022-11-24T08:14:01.871Z,24.37
2022-11-24T08:15:09.462Z,21.20
2022-11-24T08:16:17.714Z,18.87
2022-11-24T08:17:19.558Z,19.77
2022-11-24T08:18:24.316Z,17.50
2022-11-24T08:19:26.175Z,18.07
2022-11-24T08:20:27.956Z,16.93
2022-11-24T08:21:29.745Z,20.77
2022-11-24T08:22:31.504Z,22.60
2022-11-24T08:23:34.421Z,15.33
2022-11-24T08:24:37.345Z,16.33
2022-11-24T08:25:39.151Z,25.97
2022-11-24T08:26:42.045Z,33.80
2022-11-24T08:27:43.824Z,18.70
2022-11-24T08:28:46.910Z,27.30
2022-11-24T08:29:49.877Z,21.20
2022-11-24T08:30:51.867Z,20.57
2022-11-24T08:31:53.650Z,18.13
2022-11-24T08:32:55.562Z,18.73
2022-11-24T08:33:57.368Z,21.33
2022-11-24T08:35:13.021Z,23.97
2022-11-24T08:36:17.809Z,30.83
2022-11-24T08:37:19.547Z,39.70
2022-11-24T08:38:21.343Z,32.63
2022-11-24T08:39:23.106Z,26.70
2022-11-24T08:40:24.985Z,26.30
2022-11-24T08:41:28.319Z,25.90
2022-11-24T08:42:30.240Z,24.67
2022-11-24T08:43:32.389Z,27.50
2022-11-24T08:44:34.567Z,29.33
2022-11-24T08:45:41.140Z,33.53
2022-11-24T08:46:43.972Z,31.33
2022-11-24T08:47:45.767Z,37.20
2022-11-24T08:48:52.858Z,30.53
2022-11-24T08:49:54.697Z,26.70
2022-11-24T08:50:57.431Z,28.23
2022-11-24T08:51:59.204Z,34.07
2022-11-24T08:53:00.960Z,36.93
2022-11-24T08:54:03.341Z,43.97
2022-11-24T08:55:05.324Z,33.70
2022-11-24T08:56:07.836Z,18.93
2022-11-24T08:57:09.729Z,24.10
2022-11-24T08:58:11.499Z,25.63
2022-11-24T08:59:13.889Z,24.47
2022-11-24T09:00:22.390Z,27.43
2022-11-24T09:01:24.906Z,22.00
2022-11-24T09:02:26.891Z,22.03
2022-11-24T09:03:28.641Z,22.37
2022-11-24T09:04:30.596Z,26.73
2022-11-24T09:06:55.090Z,22.57
2022-11-24T09:07:57.850Z,21.70
2022-11-24T09:09:00.343Z,26.43
2022-11-24T09:10:02.455Z,23.47
2022-11-24T09:11:09.647Z,20.63
2022-11-24T09:12:14.691Z,23.50
2022-11-24T09:13:16.617Z,23.07
2022-11-24T09:14:18.350Z,24.70
2022-11-24T09:15:20.482Z,18.97
2022-11-24T09:16:25.996Z,19.83
2022-11-24T09:17:28.050Z,18.17
2022-11-24T09:18:30.498Z,17.17
2022-11-24T09:19:32.786Z,17.40
2022-11-24T09:20:34.902Z,19.27
2022-11-24T09:21:38.876Z,17.37
2022-11-24T09:22:41.706Z,15.43
2022-11-24T09:23:44.321Z,17.63
2022-11-24T09:24:46.232Z,13.77
2022-11-24T09:25:47.989Z,11.60
2022-11-24T09:26:49.985Z,9.83
2022-11-24T09:27:52.352Z,14.50
2022-11-24T09:28:55.629Z,10.97
2022-11-24T09:29:57.594Z,7.73
2022-11-24T09:31:04.024Z,8.13
2022-11-24T09:32:07.145Z,7.83
2022-11-24T09:33:09.087Z,10.73
2022-11-24T09:34:14.048Z,3.90
2022-11-24T09:35:15.916Z,13.60
2022-11-24T09:36:18.055Z,5.50
2022-11-24T09:37:19.817Z,5.07
2022-11-24T09:38:22.689Z,9.57
2022-11-24T09:39:24.793Z,6.63
2022-11-24T09:40:27.213Z,10.20
2022-11-24T09:41:34.618Z,6.63
2022-11-24T09:42:53.521Z,4.63
2022-11-24T09:44:07.303Z,3.87
2022-11-24T09:45:57.159Z,3.37
2022-11-24T09:47:01.014Z,3.47
2022-11-24T09:48:09.336Z,3.90
2022-11-24T09:49:30.402Z,5.37
2022-11-24T09:50:35.117Z,2.50
2022-11-24T09:51:37.906Z,3.37
2022-11-24T09:53:03.650Z,3.50
2022-11-24T09:54:28.492Z,4.13
2022-11-24T09:55:43.334Z,5.67
2022-11-24T09:56:55.557Z,3.10
2022-11-24T09:58:18.002Z,2.40
2022-11-24T09:59:24.244Z,3.20
2022-11-24T10:00:25.966Z,4.13
2022-11-24T10:01:40.439Z,2.50
2022-11-24T10:02:42.854Z,4.77
2022-11-24T10:03:49.645Z,7.97
2022-11-24T10:04:52.538Z,6.47
2022-11-24T10:05:54.801Z,4.70
2022-11-24T10:07:02.345Z,5.07
2022-11-24T10:08:26.311Z,3.70
2022-11-24T10:09:36.760Z,4.27
2022-11-24T10:10:57.450Z,5.03
2022-11-24T10:12:27.634Z,4.13
2022-11-24T10:13:29.348Z,4.63
2022-11-24T10:14:52.372Z,3.07
2022-11-24T10:15:59.979Z,4.47
2022-11-24T10:17:19.458Z,5.73
2022-11-24T10:18:21.254Z,4.33
2022-11-24T10:19:36.509Z,5.20
2022-11-24T10:20:48.170Z,5.43
2022-11-24T10:22:20.514Z,3.20
2022-11-24T10:23:41.913Z,1.80
2022-11-24T10:24:53.081Z,3.77
2022-11-24T10:25:57.480Z,2.63
2022-11-24T10:27:19.391Z,3.67
2022-11-24T10:28:21.121Z,2.30
2022-11-24T10:29:31.782Z,1.47
2022-11-24T10:30:33.695Z,1.97
2022-11-24T10:31:43.669Z,1.33
2022-11-24T10:32:53.062Z,2.63
2022-11-24T10:34:00.667Z,1.30
2022-11-24T10:35:18.599Z,3.57
2022-11-24T10:36:32.454Z,3.43
2022-11-24T10:37:40.961Z,1.37
2022-11-24T10:38:50.378Z,1.47
2022-11-24T10:40:48.783Z,5.27
2022-11-24T10:41:56.392Z,2.80
2022-11-24T10:42:58.237Z,1.33
2022-11-24T10:43:59.999Z,1.93
2022-11-24T10:45:18.365Z,1.97
2022-11-24T10:46:25.323Z,1.90
2022-11-24T10:47:27.732Z,1.60
2022-11-24T10:48:39.657Z,5.13
2022-11-24T10:49:42.518Z,2.35
2022-11-24T10:50:45.021Z,1.83
2022-11-24T10:52:16.053Z,1.23
2022-11-24T10:53:28.730Z,1.13
2022-11-24T10:54:30.636Z,3.07
2022-11-24T10:55:54.266Z,1.50
2022-11-24T10:56:56.168Z,1.50
2022-11-24T10:58:15.818Z,1.55
2022-11-24T10:59:38.326Z,1.77
2022-11-24T11:00:40.494Z,1.27
2022-11-24T11:01:42.368Z,1.70
2022-11-24T11:02:44.521Z,1.37
2022-11-24T11:03:51.295Z,1.50
2022-11-24T11:04:53.249Z,1.95
2022-11-24T11:06:11.400Z,0.70
2022-11-24T11:07:22.419Z,2.63
2022-11-24T11:08:27.265Z,0.90
2022-11-24T11:09:29.088Z,1.03
2022-11-24T11:10:30.878Z,2.17
2022-11-24T11:11:33.345Z,1.53
2022-11-24T11:12:44.054Z,3.80
2022-11-24T11:14:04.186Z,0.60
2022-11-24T11:15:36.226Z,0.93
2022-11-24T11:16:39.516Z,1.60
2022-11-24T11:17:43.317Z,1.63
2022-11-24T11:18:49.291Z,1.27
2022-11-24T11:19:58.677Z,0.60
2022-11-24T11:21:05.231Z,0.83
2022-11-24T11:22:10.098Z,2.33
2022-11-24T11:23:21.388Z,1.80
2022-11-24T11:24:23.160Z,1.87
2022-11-24T11:25:32.883Z,1.73
2022-11-24T11:26:37.489Z,2.30
2022-11-24T11:27:40.690Z,1.57
2022-11-24T11:28:42.451Z,2.83
2022-11-24T11:31:20.633Z,0.97
2022-11-24T11:34:21.836Z,1.58
2022-11-24T11:35:33.552Z,1.03
2022-11-24T11:36:46.521Z,1.00
2022-11-24T11:37:49.612Z,2.93
2022-11-24T11:38:51.360Z,0.60
2022-11-24T11:39:55.377Z,1.47
2022-11-24T11:40:57.398Z,1.63
2022-11-24T11:42:53.841Z,0.87
2022-11-24T11:43:45.838Z,1.58
2022-11-24T11:44:54.002Z,1.13
2022-11-24T11:46:05.103Z,1.03
2022-11-24T11:47:26.919Z,0.95
2022-11-24T11:48:42.781Z,2.22
2022-11-24T11:49:47.705Z,6.47
2022-11-24T11:51:22.406Z,1.30
2022-11-24T11:52:36.431Z,3.33
2022-11-24T11:54:06.786Z,2.92
2022-11-24T11:55:23.451Z,1.48
2022-11-24T11:56:30.956Z,1.88
2022-11-24T11:57:38.865Z,1.88
2022-11-24T11:59:02.189Z,1.35
2022-11-24T12:00:22.029Z,2.57
2022-11-24T12:01:42.852Z,2.57
2022-11-24T12:03:37.698Z,1.50
2022-11-24T12:04:47.633Z,1.92
2022-11-24T12:06:26.670Z,1.60
2022-11-24T12:07:36.864Z,2.75
2022-11-24T12:09:18.809Z,1.15
2022-11-24T12:10:36.401Z,1.97
2022-11-24T12:12:04.678Z,3.78
2022-11-24T12:13:44.002Z,2.70
2022-11-24T12:15:10.290Z,2.83
2022-11-24T12:16:30.770Z,2.90
2022-11-24T12:17:53.848Z,2.60
2022-11-24T12:19:15.738Z,3.43
2022-11-24T12:20:21.424Z,3.00
2022-11-24T12:21:46.945Z,1.10
2022-11-24T12:23:15.942Z,4.37
2022-11-24T12:24:36.665Z,3.57
2022-11-24T12:26:11.631Z,2.63
2022-11-24T12:27:38.051Z,2.80
2022-11-24T12:28:58.008Z,2.77
2022-11-24T12:30:05.776Z,2.90
2022-11-24T12:31:13.516Z,3.58
2022-11-24T12:32:50.460Z,3.03
2022-11-24T12:34:33.315Z,3.63
2022-11-24T12:36:16.495Z,5.03
2022-11-24T12:37:39.365Z,3.67
2022-11-24T12:38:59.795Z,3.63
2022-11-24T12:40:13.070Z,4.50
2022-11-24T12:41:45.790Z,3.57
2022-11-24T12:42:59.337Z,3.08
2022-11-24T12:44:02.187Z,5.75
2022-11-24T12:45:09.919Z,4.97
2022-11-24T12:46:23.806Z,5.38
2022-11-24T12:47:55.028Z,3.77
2022-11-24T12:49:05.407Z,7.43
2022-11-24T12:50:19.723Z,7.25
2022-11-24T12:51:28.920Z,7.18
2022-11-24T12:52:38.004Z,9.75
2022-11-24T12:53:41.050Z,5.28
2022-11-24T12:54:42.834Z,6.93
2022-11-24T12:55:45.801Z,7.80
2022-11-24T12:57:15.146Z,4.28
2022-11-24T12:58:40.660Z,6.20
2022-11-24T13:00:06.121Z,7.35
2022-11-24T13:01:23.012Z,4.67
2022-11-24T13:02:51.686Z,4.85
2022-11-24T13:04:28.643Z,5.55
2022-11-24T13:05:33.726Z,5.83
2022-11-24T13:06:56.158Z,7.05
2022-11-24T13:08:03.948Z,3.15
2022-11-24T13:09:13.175Z,5.85
2022-11-24T13:10:40.423Z,4.72
2022-11-24T13:11:50.312Z,5.68
2022-11-24T13:12:57.652Z,8.18
2022-11-24T13:14:21.423Z,6.78
2022-11-24T13:15:44.708Z,4.65
2022-11-24T13:18:54.001Z,6.35
2022-11-24T13:20:20.107Z,3.73
2022-11-24T13:21:28.329Z,6.45
2022-11-24T13:22:30.172Z,4.05
2022-11-24T13:23:31.988Z,5.37
2022-11-24T13:24:36.951Z,5.50
2022-11-24T13:25:39.809Z,4.95
2022-11-24T13:26:54.274Z,4.82
2022-11-24T13:27:59.590Z,4.47
2022-11-24T13:29:18.240Z,4.73
2022-11-24T13:30:35.659Z,5.77
2022-11-24T13:31:37.511Z,3.93
2022-11-24T13:32:39.356Z,7.70
2022-11-24T13:33:41.319Z,3.53
2022-11-24T13:34:43.216Z,5.57
2022-11-24T13:36:04.099Z,5.90
2022-11-24T13:37:35.851Z,3.53
2022-11-24T13:38:41.960Z,6.57
2022-11-24T13:39:56.815Z,7.10
2022-11-24T13:41:13.495Z,7.80
2022-11-24T13:42:43.690Z,4.95
2022-11-24T13:44:15.249Z,4.80
2022-11-24T13:45:49.268Z,4.50
2022-11-24T13:47:26.013Z,6.38
2022-11-24T13:48:27.702Z,3.90
2022-11-24T13:49:39.662Z,4.40
2022-11-24T13:50:50.460Z,4.13
2022-11-24T13:52:53.387Z,3.67
2022-11-24T13:53:56.588Z,5.03
2022-11-24T13:54:59.351Z,7.00
2022-11-24T13:56:19.754Z,3.30
2022-11-24T13:57:36.326Z,5.22
2022-11-24T13:58:56.531Z,4.22
2022-11-24T14:00:03.064Z,5.60
2022-11-24T14:01:16.788Z,5.55
2022-11-24T14:02:23.190Z,4.55
2022-11-24T14:03:34.583Z,5.07
2022-11-24T14:04:39.494Z,4.43
2022-11-24T14:05:48.159Z,5.13
2022-11-24T14:06:52.655Z,6.50
2022-11-24T14:07:54.749Z,5.80
2022-11-24T14:09:00.293Z,12.57
2022-11-24T14:10:02.476Z,8.45
2022-11-24T14:11:14.688Z,6.27
2022-11-24T14:12:20.165Z,6.63
2022-11-24T14:13:32.932Z,9.07
2022-11-24T14:14:35.126Z,7.25
2022-11-24T14:15:37.162Z,8.07
2022-11-24T14:16:38.976Z,7.40
2022-11-24T14:17:40.868Z,6.32
2022-11-24T14:18:48.303Z,9.97
2022-11-24T14:19:52.716Z,6.73
2022-11-24T14:20:55.775Z,4.63
2022-11-24T14:21:57.603Z,7.60
2022-11-24T14:23:00.698Z,8.85
2022-11-24T14:24:29.017Z,5.47
2022-11-24T14:25:32.383Z,4.55
2022-11-24T14:26:41.349Z,8.60
2022-11-24T14:27:43.176Z,3.70
2022-11-24T14:28:45.836Z,7.05
2022-11-24T14:29:56.064Z,5.07
2022-11-24T14:31:09.258Z,6.15
2022-11-24T14:32:16.864Z,2.97
2022-11-24T14:33:19.969Z,9.15
2022-11-24T14:34:24.350Z,6.33
2022-11-24T14:35:31.924Z,14.47
2022-11-24T14:36:34.141Z,7.28
2022-11-24T14:37:36.484Z,6.35
2022-11-24T14:38:38.210Z,7.37
2022-11-24T14:39:43.121Z,7.30